sensor_id;sensor_type;location;lat;lon;timestamp;temperature;humidity
50162;DHT22;36061;48.116;11.612;2023-03-30T00:00:17;9.60;99.90
50162;DHT22;36061;48.116;11.612;2023-03-30T00:02:50;9.60;99.90
50162;DHT22;36061;48.116;11.612;2023-03-30T00:05:19;9.60;99.90
50162;DHT22;36061;48.116;11.612;2023-03-30T00:07:48;9.60;99.90
50162;DHT22;36061;48.116;11.612;2023-03-30T00:10:16;9.50;99.90
50162;DHT22;36061;48.116;11.612;2023-03-30T00:12:46;9.60;99.90
50162;DHT22;36061;48.116;11.612;2023-03-30T00:15:17;9.50;99.90
50162;DHT22;36061;48.116;11.612;2023-03-30T00:17:45;9.60;99.90
50162;DHT22;36061;48.116;11.612;2023-03-30T00:20:13;9.50;99.90
50162;DHT22;36061;48.116;11.612;2023-03-30T00:22:43;9.60;99.90
50162;DHT22;36061;48.116;11.612;2023-03-30T00:25:13;9.60;99.90
50162;DHT22;36061;48.116;11.612;2023-03-30T00:27:41;9.60;99.90
50162;DHT22;36061;48.116;11.612;2023-03-30T00:30:17;9.50;99.90
50162;DHT22;36061;48.116;11.612;2023-03-30T00:32:45;9.50;99.90
50162;DHT22;36061;48.116;11.612;2023-03-30T00:35:14;9.50;99.90
50162;DHT22;36061;48.116;11.612;2023-03-30T00:37:41;9.50;99.90
50162;DHT22;36061;48.116;11.612;2023-03-30T00:40:15;9.50;99.90
50162;DHT22;36061;48.116;11.612;2023-03-30T00:42:42;9.50;99.90
50162;DHT22;36061;48.116;11.612;2023-03-30T00:45:23;9.50;99.90
50162;DHT22;36061;48.116;11.612;2023-03-30T00:48:00;9.50;99.90
50162;DHT22;36061;48.116;11.612;2023-03-30T00:50:32;9.50;99.90
50162;DHT22;36061;48.116;11.612;2023-03-30T00:53:06;9.50;99.90
50162;DHT22;36061;48.116;11.612;2023-03-30T00:55:37;9.50;99.90
50162;DHT22;36061;48.116;11.612;2023-03-30T00:58:06;9.50;99.90
50162;DHT22;36061;48.116;11.612;2023-03-30T01:00:36;9.50;99.90
50162;DHT22;36061;48.116;11.612;2023-03-30T01:03:09;9.50;99.90
50162;DHT22;36061;48.116;11.612;2023-03-30T01:05:39;9.50;99.90
50162;DHT22;36061;48.116;11.612;2023-03-30T01:08:08;9.50;99.90
50162;DHT22;36061;48.116;11.612;2023-03-30T01:10:39;9.50;99.90
50162;DHT22;36061;48.116;11.612;2023-03-30T01:13:06;9.50;99.90
50162;DHT22;36061;48.116;11.612;2023-03-30T01:15:37;9.50;99.90
50162;DHT22;36061;48.116;11.612;2023-03-30T01:18:14;9.50;99.90
50162;DHT22;36061;48.116;11.612;2023-03-30T01:26:54;9.60;99.90
50162;DHT22;36061;48.116;11.612;2023-03-30T01:29:41;9.60;99.90
50162;DHT22;36061;48.116;11.612;2023-03-30T01:36:17;9.60;99.90
50162;DHT22;36061;48.116;11.612;2023-03-30T01:39:15;9.70;99.90
50162;DHT22;36061;48.116;11.612;2023-03-30T01:41:50;9.70;99.90
50162;DHT22;36061;48.116;11.612;2023-03-30T01:44:31;9.80;99.90
50162;DHT22;36061;48.116;11.612;2023-03-30T01:47:05;9.80;99.90
50162;DHT22;36061;48.116;11.612;2023-03-30T01:49:38;9.90;99.90
50162;DHT22;36061;48.116;11.612;2023-03-30T01:52:14;9.90;99.90
50162;DHT22;36061;48.116;11.612;2023-03-30T01:54:46;10.00;99.90
50162;DHT22;36061;48.116;11.612;2023-03-30T01:57:15;10.10;99.90
50162;DHT22;36061;48.116;11.612;2023-03-30T01:59:52;10.20;99.90
50162;DHT22;36061;48.116;11.612;2023-03-30T02:02:25;10.30;99.90
50162;DHT22;36061;48.116;11.612;2023-03-30T02:04:55;10.30;99.90
50162;DHT22;36061;48.116;11.612;2023-03-30T02:07:28;10.40;99.90
50162;DHT22;36061;48.116;11.612;2023-03-30T02:10:00;10.50;99.90
50162;DHT22;36061;48.116;11.612;2023-03-30T02:12:29;10.60;99.90
50162;DHT22;36061;48.116;11.612;2023-03-30T02:14:59;10.60;99.90
50162;DHT22;36061;48.116;11.612;2023-03-30T02:17:29;10.60;99.90
50162;DHT22;36061;48.116;11.612;2023-03-30T02:19:57;10.70;99.90
50162;DHT22;36061;48.116;11.612;2023-03-30T02:22:26;10.70;99.90
50162;DHT22;36061;48.116;11.612;2023-03-30T02:24:55;10.80;99.90
50162;DHT22;36061;48.116;11.612;2023-03-30T02:27:25;10.80;99.90
50162;DHT22;36061;48.116;11.612;2023-03-30T02:29:52;10.80;99.90
50162;DHT22;36061;48.116;11.612;2023-03-30T02:32:24;10.80;99.90
50162;DHT22;36061;48.116;11.612;2023-03-30T02:41:00;10.80;99.90
50162;DHT22;36061;48.116;11.612;2023-03-30T02:43:44;10.80;99.90
50162;DHT22;36061;48.116;11.612;2023-03-30T02:46:34;10.80;99.90
50162;DHT22;36061;48.116;11.612;2023-03-30T02:49:12;10.90;99.90
50162;DHT22;36061;48.116;11.612;2023-03-30T02:51:48;11.00;99.90
50162;DHT22;36061;48.116;11.612;2023-03-30T02:54:46;11.00;99.90
50162;DHT22;36061;48.116;11.612;2023-03-30T02:57:27;11.00;99.90
50162;DHT22;36061;48.116;11.612;2023-03-30T03:00:16;11.00;99.90
50162;DHT22;36061;48.116;11.612;2023-03-30T03:02:48;11.10;99.90
50162;DHT22;36061;48.116;11.612;2023-03-30T03:05:25;11.20;99.90
50162;DHT22;36061;48.116;11.612;2023-03-30T03:08:02;11.40;99.90
50162;DHT22;36061;48.116;11.612;2023-03-30T03:10:31;11.40;99.90
50162;DHT22;36061;48.116;11.612;2023-03-30T03:13:01;11.50;99.90
50162;DHT22;36061;48.116;11.612;2023-03-30T03:15:30;11.40;99.90
50162;DHT22;36061;48.116;11.612;2023-03-30T03:18:06;11.40;99.90
50162;DHT22;36061;48.116;11.612;2023-03-30T03:20:35;11.40;99.90
50162;DHT22;36061;48.116;11.612;2023-03-30T03:23:02;11.40;99.90
50162;DHT22;36061;48.116;11.612;2023-03-30T03:25:37;11.30;99.90
50162;DHT22;36061;48.116;11.612;2023-03-30T03:28:06;11.30;99.90
50162;DHT22;36061;48.116;11.612;2023-03-30T03:30:40;11.30;99.90
50162;DHT22;36061;48.116;11.612;2023-03-30T03:33:14;11.30;99.90
50162;DHT22;36061;48.116;11.612;2023-03-30T03:35:46;11.20;99.90
50162;DHT22;36061;48.116;11.612;2023-03-30T03:38:13;11.20;99.90
50162;DHT22;36061;48.116;11.612;2023-03-30T03:40:41;11.10;99.90
50162;DHT22;36061;48.116;11.612;2023-03-30T03:43:08;11.10;99.90
50162;DHT22;36061;48.116;11.612;2023-03-30T03:45:35;11.00;99.90
50162;DHT22;36061;48.116;11.612;2023-03-30T03:48:04;10.90;99.90
50162;DHT22;36061;48.116;11.612;2023-03-30T03:50:52;10.90;99.90
50162;DHT22;36061;48.116;11.612;2023-03-30T03:53:20;10.80;99.90
50162;DHT22;36061;48.116;11.612;2023-03-30T03:55:50;10.80;99.90
50162;DHT22;36061;48.116;11.612;2023-03-30T03:58:18;10.70;99.90
50162;DHT22;36061;48.116;11.612;2023-03-30T04:00:45;10.70;99.90
50162;DHT22;36061;48.116;11.612;2023-03-30T04:03:14;10.70;99.90
50162;DHT22;36061;48.116;11.612;2023-03-30T04:05:42;10.70;99.90
50162;DHT22;36061;48.116;11.612;2023-03-30T04:08:09;10.70;99.90
50162;DHT22;36061;48.116;11.612;2023-03-30T04:10:38;10.60;99.90
50162;DHT22;36061;48.116;11.612;2023-03-30T04:13:24;10.40;99.90
50162;DHT22;36061;48.116;11.612;2023-03-30T04:16:10;10.60;99.90
50162;DHT22;36061;48.116;11.612;2023-03-30T04:19:08;10.60;99.90
50162;DHT22;36061;48.116;11.612;2023-03-30T04:21:54;10.50;99.90
50162;DHT22;36061;48.116;11.612;2023-03-30T04:24:49;10.50;99.90
50162;DHT22;36061;48.116;11.612;2023-03-30T04:27:35;10.50;99.90
50162;DHT22;36061;48.116;11.612;2023-03-30T04:30:17;10.50;99.90
50162;DHT22;36061;48.116;11.612;2023-03-30T04:33:10;10.40;99.90
50162;DHT22;36061;48.116;11.612;2023-03-30T04:35:52;10.40;99.90
50162;DHT22;36061;48.116;11.612;2023-03-30T04:38:51;10.40;99.90
50162;DHT22;36061;48.116;11.612;2023-03-30T04:41:43;10.40;99.90
50162;DHT22;36061;48.116;11.612;2023-03-30T04:44:34;10.40;99.90
50162;DHT22;36061;48.116;11.612;2023-03-30T04:47:24;10.40;99.90
50162;DHT22;36061;48.116;11.612;2023-03-30T04:50:17;10.40;99.90
50162;DHT22;36061;48.116;11.612;2023-03-30T04:53:05;10.40;99.90
50162;DHT22;36061;48.116;11.612;2023-03-30T04:55:51;10.50;99.90
50162;DHT22;36061;48.116;11.612;2023-03-30T04:58:39;10.50;99.90
50162;DHT22;36061;48.116;11.612;2023-03-30T05:01:29;10.50;99.90
50162;DHT22;36061;48.116;11.612;2023-03-30T05:04:15;10.50;99.90
50162;DHT22;36061;48.116;11.612;2023-03-30T05:07:01;10.50;99.90
50162;DHT22;36061;48.116;11.612;2023-03-30T05:09:53;10.40;99.90
50162;DHT22;36061;48.116;11.612;2023-03-30T05:12:23;10.40;99.90
50162;DHT22;36061;48.116;11.612;2023-03-30T05:15:08;10.40;99.90
50162;DHT22;36061;48.116;11.612;2023-03-30T05:18:02;10.40;99.90
50162;DHT22;36061;48.116;11.612;2023-03-30T05:21:05;10.40;99.90
50162;DHT22;36061;48.116;11.612;2023-03-30T05:23:41;10.40;99.90
50162;DHT22;36061;48.116;11.612;2023-03-30T05:26:28;10.40;99.90
50162;DHT22;36061;48.116;11.612;2023-03-30T05:29:08;10.40;99.90
50162;DHT22;36061;48.116;11.612;2023-03-30T05:31:56;10.40;99.90
50162;DHT22;36061;48.116;11.612;2023-03-30T05:34:44;10.40;99.90
50162;DHT22;36061;48.116;11.612;2023-03-30T05:37:32;10.40;99.90
50162;DHT22;36061;48.116;11.612;2023-03-30T05:40:19;10.40;99.90
50162;DHT22;36061;48.116;11.612;2023-03-30T05:43:18;10.40;99.90
50162;DHT22;36061;48.116;11.612;2023-03-30T05:46:05;10.40;99.90
50162;DHT22;36061;48.116;11.612;2023-03-30T05:48:32;10.40;99.90
50162;DHT22;36061;48.116;11.612;2023-03-30T05:51:09;10.40;99.90
50162;DHT22;36061;48.116;11.612;2023-03-30T05:53:47;10.40;99.90
50162;DHT22;36061;48.116;11.612;2023-03-30T05:56:33;10.40;99.90
50162;DHT22;36061;48.116;11.612;2023-03-30T05:59:19;10.50;99.90
50162;DHT22;36061;48.116;11.612;2023-03-30T06:02:11;10.50;99.90
50162;DHT22;36061;48.116;11.612;2023-03-30T06:04:40;10.50;99.90
50162;DHT22;36061;48.116;11.612;2023-03-30T06:07:07;10.50;99.90
50162;DHT22;36061;48.116;11.612;2023-03-30T06:09:35;10.50;99.90
50162;DHT22;36061;48.116;11.612;2023-03-30T06:12:11;10.50;99.90
50162;DHT22;36061;48.116;11.612;2023-03-30T06:14:40;10.50;99.90
50162;DHT22;36061;48.116;11.612;2023-03-30T06:17:40;10.50;99.90
50162;DHT22;36061;48.116;11.612;2023-03-30T06:20:08;10.50;99.90
50162;DHT22;36061;48.116;11.612;2023-03-30T06:22:39;10.60;99.90
50162;DHT22;36061;48.116;11.612;2023-03-30T06:25:18;10.60;99.90
50162;DHT22;36061;48.116;11.612;2023-03-30T06:27:45;10.60;99.90
50162;DHT22;36061;48.116;11.612;2023-03-30T06:30:15;10.70;99.90
50162;DHT22;36061;48.116;11.612;2023-03-30T06:32:46;10.70;99.90
50162;DHT22;36061;48.116;11.612;2023-03-30T06:35:23;10.70;99.90
50162;DHT22;36061;48.116;11.612;2023-03-30T06:37:52;10.80;99.90
50162;DHT22;36061;48.116;11.612;2023-03-30T06:40:19;10.90;99.90
50162;DHT22;36061;48.116;11.612;2023-03-30T06:42:49;10.90;99.90
50162;DHT22;36061;48.116;11.612;2023-03-30T06:45:31;10.90;99.90
50162;DHT22;36061;48.116;11.612;2023-03-30T06:47:58;10.90;99.90
50162;DHT22;36061;48.116;11.612;2023-03-30T06:50:25;10.90;99.90
50162;DHT22;36061;48.116;11.612;2023-03-30T06:53:16;10.90;99.90
50162;DHT22;36061;48.116;11.612;2023-03-30T06:55:50;10.90;99.90
50162;DHT22;36061;48.116;11.612;2023-03-30T06:58:18;10.90;99.90
50162;DHT22;36061;48.116;11.612;2023-03-30T07:00:47;11.00;99.90
50162;DHT22;36061;48.116;11.612;2023-03-30T07:03:33;11.10;99.90
50162;DHT22;36061;48.116;11.612;2023-03-30T07:06:16;11.10;99.90
50162;DHT22;36061;48.116;11.612;2023-03-30T07:08:45;11.10;99.90
50162;DHT22;36061;48.116;11.612;2023-03-30T07:11:17;11.10;99.90
50162;DHT22;36061;48.116;11.612;2023-03-30T07:13:45;11.20;99.90
50162;DHT22;36061;48.116;11.612;2023-03-30T07:16:13;11.20;99.90
50162;DHT22;36061;48.116;11.612;2023-03-30T07:18:41;11.20;99.90
50162;DHT22;36061;48.116;11.612;2023-03-30T07:21:08;11.20;99.90
50162;DHT22;36061;48.116;11.612;2023-03-30T07:23:40;11.30;99.90
50162;DHT22;36061;48.116;11.612;2023-03-30T07:26:11;11.30;99.90
50162;DHT22;36061;48.116;11.612;2023-03-30T07:28:50;11.50;99.90
50162;DHT22;36061;48.116;11.612;2023-03-30T07:31:21;11.60;99.90
50162;DHT22;36061;48.116;11.612;2023-03-30T07:33:50;11.70;99.90
50162;DHT22;36061;48.116;11.612;2023-03-30T07:36:21;11.80;99.90
50162;DHT22;36061;48.116;11.612;2023-03-30T07:38:49;12.00;99.90
50162;DHT22;36061;48.116;11.612;2023-03-30T07:41:16;12.10;99.90
50162;DHT22;36061;48.116;11.612;2023-03-30T07:43:49;12.20;99.90
50162;DHT22;36061;48.116;11.612;2023-03-30T07:46:16;12.20;99.90
50162;DHT22;36061;48.116;11.612;2023-03-30T07:48:48;12.20;99.90
50162;DHT22;36061;48.116;11.612;2023-03-30T07:51:15;12.10;99.90
50162;DHT22;36061;48.116;11.612;2023-03-30T07:53:51;12.10;99.90
50162;DHT22;36061;48.116;11.612;2023-03-30T07:56:28;12.10;99.90
50162;DHT22;36061;48.116;11.612;2023-03-30T07:58:58;12.20;99.90
50162;DHT22;36061;48.116;11.612;2023-03-30T08:01:30;12.30;99.90
50162;DHT22;36061;48.116;11.612;2023-03-30T08:04:03;12.30;99.90
50162;DHT22;36061;48.116;11.612;2023-03-30T08:06:33;12.30;99.90
50162;DHT22;36061;48.116;11.612;2023-03-30T08:09:01;12.30;99.90
50162;DHT22;36061;48.116;11.612;2023-03-30T08:11:30;12.30;99.90
50162;DHT22;36061;48.116;11.612;2023-03-30T08:13:57;12.30;99.90
50162;DHT22;36061;48.116;11.612;2023-03-30T08:16:25;12.30;99.90
50162;DHT22;36061;48.116;11.612;2023-03-30T08:18:52;12.40;99.90
50162;DHT22;36061;48.116;11.612;2023-03-30T08:21:21;12.50;99.90
50162;DHT22;36061;48.116;11.612;2023-03-30T08:23:50;12.50;99.90
50162;DHT22;36061;48.116;11.612;2023-03-30T08:26:17;12.70;99.90
50162;DHT22;36061;48.116;11.612;2023-03-30T08:28:45;12.80;99.90
50162;DHT22;36061;48.116;11.612;2023-03-30T08:31:12;12.90;99.90
50162;DHT22;36061;48.116;11.612;2023-03-30T08:33:42;13.40;99.90
50162;DHT22;36061;48.116;11.612;2023-03-30T08:36:10;13.10;99.90
50162;DHT22;36061;48.116;11.612;2023-03-30T08:38:40;13.20;99.90
50162;DHT22;36061;48.116;11.612;2023-03-30T08:44:12;13.40;99.90
50162;DHT22;36061;48.116;11.612;2023-03-30T08:46:41;13.60;99.90
50162;DHT22;36061;48.116;11.612;2023-03-30T08:49:14;13.60;99.90
50162;DHT22;36061;48.116;11.612;2023-03-30T08:51:42;13.60;99.90
50162;DHT22;36061;48.116;11.612;2023-03-30T08:54:15;13.60;99.90
50162;DHT22;36061;48.116;11.612;2023-03-30T08:56:50;13.50;99.90
50162;DHT22;36061;48.116;11.612;2023-03-30T08:59:24;13.40;99.90
50162;DHT22;36061;48.116;11.612;2023-03-30T09:01:58;13.30;99.90
50162;DHT22;36061;48.116;11.612;2023-03-30T09:04:31;13.20;99.90
50162;DHT22;36061;48.116;11.612;2023-03-30T09:07:04;13.30;99.90
50162;DHT22;36061;48.116;11.612;2023-03-30T09:09:39;13.40;99.90
50162;DHT22;36061;48.116;11.612;2023-03-30T09:12:12;13.50;99.90
50162;DHT22;36061;48.116;11.612;2023-03-30T09:14:44;13.60;99.90
50162;DHT22;36061;48.116;11.612;2023-03-30T09:17:15;13.60;99.90
50162;DHT22;36061;48.116;11.612;2023-03-30T09:19:49;13.70;99.90
50162;DHT22;36061;48.116;11.612;2023-03-30T09:22:27;13.80;99.90
50162;DHT22;36061;48.116;11.612;2023-03-30T09:24:57;13.90;99.90
50162;DHT22;36061;48.116;11.612;2023-03-30T09:27:32;14.10;99.90
50162;DHT22;36061;48.116;11.612;2023-03-30T09:30:12;14.20;99.90
50162;DHT22;36061;48.116;11.612;2023-03-30T09:32:48;14.20;99.90
50162;DHT22;36061;48.116;11.612;2023-03-30T09:35:19;14.30;99.90
50162;DHT22;36061;48.116;11.612;2023-03-30T09:37:49;14.50;99.90
50162;DHT22;36061;48.116;11.612;2023-03-30T09:40:23;14.60;99.90
50162;DHT22;36061;48.116;11.612;2023-03-30T09:42:57;14.70;99.90
50162;DHT22;36061;48.116;11.612;2023-03-30T09:45:30;14.90;99.90
50162;DHT22;36061;48.116;11.612;2023-03-30T09:48:03;15.00;99.90
50162;DHT22;36061;48.116;11.612;2023-03-30T09:50:36;15.10;99.90
50162;DHT22;36061;48.116;11.612;2023-03-30T09:53:06;15.20;99.90
50162;DHT22;36061;48.116;11.612;2023-03-30T09:55:36;15.30;99.90
50162;DHT22;36061;48.116;11.612;2023-03-30T09:58:11;15.40;99.90
50162;DHT22;36061;48.116;11.612;2023-03-30T10:00:39;15.50;99.90
50162;DHT22;36061;48.116;11.612;2023-03-30T10:03:12;15.60;99.90
50162;DHT22;36061;48.116;11.612;2023-03-30T10:05:44;15.70;99.90
50162;DHT22;36061;48.116;11.612;2023-03-30T10:08:19;15.70;99.90
50162;DHT22;36061;48.116;11.612;2023-03-30T10:10:52;15.70;99.90
50162;DHT22;36061;48.116;11.612;2023-03-30T10:13:26;15.70;99.90
50162;DHT22;36061;48.116;11.612;2023-03-30T10:15:54;15.70;99.90
50162;DHT22;36061;48.116;11.612;2023-03-30T10:18:25;15.70;99.90
50162;DHT22;36061;48.116;11.612;2023-03-30T10:21:00;15.70;99.90
50162;DHT22;36061;48.116;11.612;2023-03-30T10:23:30;15.80;99.90
50162;DHT22;36061;48.116;11.612;2023-03-30T10:26:02;15.90;99.90
50162;DHT22;36061;48.116;11.612;2023-03-30T10:28:31;16.00;99.90
50162;DHT22;36061;48.116;11.612;2023-03-30T10:31:03;16.10;99.90
50162;DHT22;36061;48.116;11.612;2023-03-30T10:33:39;16.20;99.90
50162;DHT22;36061;48.116;11.612;2023-03-30T10:36:08;16.40;99.90
50162;DHT22;36061;48.116;11.612;2023-03-30T10:38:38;16.50;99.90
50162;DHT22;36061;48.116;11.612;2023-03-30T10:41:10;16.60;99.90
50162;DHT22;36061;48.116;11.612;2023-03-30T10:43:38;16.60;99.90
50162;DHT22;36061;48.116;11.612;2023-03-30T10:46:10;16.60;99.90
50162;DHT22;36061;48.116;11.612;2023-03-30T10:48:52;16.60;99.90
50162;DHT22;36061;48.116;11.612;2023-03-30T10:51:30;16.40;99.90
50162;DHT22;36061;48.116;11.612;2023-03-30T10:54:05;16.30;99.90
50162;DHT22;36061;48.116;11.612;2023-03-30T10:56:39;16.10;99.90
50162;DHT22;36061;48.116;11.612;2023-03-30T10:59:22;16.00;99.90
50162;DHT22;36061;48.116;11.612;2023-03-30T11:01:59;15.90;99.90
50162;DHT22;36061;48.116;11.612;2023-03-30T11:04:40;15.80;99.90
50162;DHT22;36061;48.116;11.612;2023-03-30T11:07:12;15.70;99.90
50162;DHT22;36061;48.116;11.612;2023-03-30T11:09:47;15.50;99.90
50162;DHT22;36061;48.116;11.612;2023-03-30T11:12:20;15.50;99.90
50162;DHT22;36061;48.116;11.612;2023-03-30T11:14:51;15.40;99.90
50162;DHT22;36061;48.116;11.612;2023-03-30T11:17:24;15.40;99.90
50162;DHT22;36061;48.116;11.612;2023-03-30T11:19:55;15.30;99.90
50162;DHT22;36061;48.116;11.612;2023-03-30T11:22:30;15.20;99.90
50162;DHT22;36061;48.116;11.612;2023-03-30T11:25:00;15.10;99.90
50162;DHT22;36061;48.116;11.612;2023-03-30T11:27:32;15.00;99.90
50162;DHT22;36061;48.116;11.612;2023-03-30T11:30:08;14.90;99.90
50162;DHT22;36061;48.116;11.612;2023-03-30T11:32:41;14.90;99.90
50162;DHT22;36061;48.116;11.612;2023-03-30T11:35:13;14.70;99.90
50162;DHT22;36061;48.116;11.612;2023-03-30T11:37:47;14.50;99.90
50162;DHT22;36061;48.116;11.612;2023-03-30T11:40:18;14.30;99.90
50162;DHT22;36061;48.116;11.612;2023-03-30T11:42:48;14.20;99.90
50162;DHT22;36061;48.116;11.612;2023-03-30T11:45:27;13.90;99.90
50162;DHT22;36061;48.116;11.612;2023-03-30T11:48:26;13.80;99.90
50162;DHT22;36061;48.116;11.612;2023-03-30T11:51:08;13.70;99.90
50162;DHT22;36061;48.116;11.612;2023-03-30T11:53:48;13.70;99.90
50162;DHT22;36061;48.116;11.612;2023-03-30T11:56:23;13.60;99.90
50162;DHT22;36061;48.116;11.612;2023-03-30T11:59:02;13.50;99.90
50162;DHT22;36061;48.116;11.612;2023-03-30T12:02:04;13.40;99.90
50162;DHT22;36061;48.116;11.612;2023-03-30T12:04:37;13.30;99.90
50162;DHT22;36061;48.116;11.612;2023-03-30T12:07:13;13.10;99.90
50162;DHT22;36061;48.116;11.612;2023-03-30T12:09:48;12.90;99.90
50162;DHT22;36061;48.116;11.612;2023-03-30T12:12:27;12.70;99.90
50162;DHT22;36061;48.116;11.612;2023-03-30T12:15:17;12.50;99.90
50162;DHT22;36061;48.116;11.612;2023-03-30T12:17:50;12.30;99.90
50162;DHT22;36061;48.116;11.612;2023-03-30T12:20:29;12.20;99.90
50162;DHT22;36061;48.116;11.612;2023-03-30T12:23:03;12.00;99.90
50162;DHT22;36061;48.116;11.612;2023-03-30T12:25:46;11.90;99.90
50162;DHT22;36061;48.116;11.612;2023-03-30T12:28:16;11.80;99.90
50162;DHT22;36061;48.116;11.612;2023-03-30T12:30:53;11.70;99.90
50162;DHT22;36061;48.116;11.612;2023-03-30T12:33:26;11.60;99.90
50162;DHT22;36061;48.116;11.612;2023-03-30T12:35:58;11.50;99.90
50162;DHT22;36061;48.116;11.612;2023-03-30T12:38:33;11.40;99.90
50162;DHT22;36061;48.116;11.612;2023-03-30T12:41:08;11.40;99.90
50162;DHT22;36061;48.116;11.612;2023-03-30T12:44:01;11.40;99.90
50162;DHT22;36061;48.116;11.612;2023-03-30T12:46:34;11.30;99.90
50162;DHT22;36061;48.116;11.612;2023-03-30T12:49:13;11.30;99.90
50162;DHT22;36061;48.116;11.612;2023-03-30T12:51:53;11.20;99.90
50162;DHT22;36061;48.116;11.612;2023-03-30T12:57:35;11.20;99.90
50162;DHT22;36061;48.116;11.612;2023-03-30T13:00:25;11.20;99.90
50162;DHT22;36061;48.116;11.612;2023-03-30T13:03:04;11.20;99.90
50162;DHT22;36061;48.116;11.612;2023-03-30T13:05:34;11.20;99.90
50162;DHT22;36061;48.116;11.612;2023-03-30T13:08:06;11.20;99.90
50162;DHT22;36061;48.116;11.612;2023-03-30T13:10:40;11.20;99.90
50162;DHT22;36061;48.116;11.612;2023-03-30T13:13:17;11.20;99.90
50162;DHT22;36061;48.116;11.612;2023-03-30T13:15:49;11.20;99.90
50162;DHT22;36061;48.116;11.612;2023-03-30T13:18:52;11.20;99.90
50162;DHT22;36061;48.116;11.612;2023-03-30T13:21:22;11.10;99.90
50162;DHT22;36061;48.116;11.612;2023-03-30T13:24:02;11.10;99.90
50162;DHT22;36061;48.116;11.612;2023-03-30T13:26:40;11.10;99.90
50162;DHT22;36061;48.116;11.612;2023-03-30T13:29:08;11.20;99.90
50162;DHT22;36061;48.116;11.612;2023-03-30T13:31:52;11.20;99.90
50162;DHT22;36061;48.116;11.612;2023-03-30T13:34:36;11.20;99.90
50162;DHT22;36061;48.116;11.612;2023-03-30T13:37:13;11.20;99.90
50162;DHT22;36061;48.116;11.612;2023-03-30T13:39:46;11.30;99.90
50162;DHT22;36061;48.116;11.612;2023-03-30T13:42:29;11.30;99.90
50162;DHT22;36061;48.116;11.612;2023-03-30T13:45:03;11.30;99.90
50162;DHT22;36061;48.116;11.612;2023-03-30T13:47:51;11.30;99.90
50162;DHT22;36061;48.116;11.612;2023-03-30T13:50:25;11.30;99.90
50162;DHT22;36061;48.116;11.612;2023-03-30T13:52:54;11.30;99.90
50162;DHT22;36061;48.116;11.612;2023-03-30T13:55:28;11.30;99.90
50162;DHT22;36061;48.116;11.612;2023-03-30T13:58:00;11.30;99.90
50162;DHT22;36061;48.116;11.612;2023-03-30T14:00:33;11.30;99.90
50162;DHT22;36061;48.116;11.612;2023-03-30T14:03:27;11.30;99.90
50162;DHT22;36061;48.116;11.612;2023-03-30T14:06:00;11.30;99.90
50162;DHT22;36061;48.116;11.612;2023-03-30T14:08:30;11.30;99.90
50162;DHT22;36061;48.116;11.612;2023-03-30T14:11:00;11.30;99.90
50162;DHT22;36061;48.116;11.612;2023-03-30T14:13:29;11.30;99.90
50162;DHT22;36061;48.116;11.612;2023-03-30T14:15:57;11.30;99.90
50162;DHT22;36061;48.116;11.612;2023-03-30T14:18:25;11.30;99.90
50162;DHT22;36061;48.116;11.612;2023-03-30T14:20:55;11.30;99.90
50162;DHT22;36061;48.116;11.612;2023-03-30T14:23:31;11.30;99.90
50162;DHT22;36061;48.116;11.612;2023-03-30T14:26:03;11.30;99.90
50162;DHT22;36061;48.116;11.612;2023-03-30T14:28:34;11.30;99.90
50162;DHT22;36061;48.116;11.612;2023-03-30T14:31:10;11.30;99.90
50162;DHT22;36061;48.116;11.612;2023-03-30T14:33:37;11.30;99.90
50162;DHT22;36061;48.116;11.612;2023-03-30T14:36:06;11.30;99.90
50162;DHT22;36061;48.116;11.612;2023-03-30T14:38:56;11.30;99.90
50162;DHT22;36061;48.116;11.612;2023-03-30T14:41:25;11.30;99.90
50162;DHT22;36061;48.116;11.612;2023-03-30T14:43:54;11.30;99.90
50162;DHT22;36061;48.116;11.612;2023-03-30T14:46:23;11.30;99.90
50162;DHT22;36061;48.116;11.612;2023-03-30T14:48:52;11.20;99.90
50162;DHT22;36061;48.116;11.612;2023-03-30T14:51:24;11.20;99.90
50162;DHT22;36061;48.116;11.612;2023-03-30T14:53:53;11.30;99.90
50162;DHT22;36061;48.116;11.612;2023-03-30T14:56:22;11.30;99.90
50162;DHT22;36061;48.116;11.612;2023-03-30T14:58:50;11.30;99.90
50162;DHT22;36061;48.116;11.612;2023-03-30T15:01:23;11.40;99.90
50162;DHT22;36061;48.116;11.612;2023-03-30T15:03:57;11.50;99.90
50162;DHT22;36061;48.116;11.612;2023-03-30T15:06:25;11.50;99.90
50162;DHT22;36061;48.116;11.612;2023-03-30T15:08:58;11.60;99.90
50162;DHT22;36061;48.116;11.612;2023-03-30T15:11:30;11.70;99.90
50162;DHT22;36061;48.116;11.612;2023-03-30T15:14:00;11.80;99.90
50162;DHT22;36061;48.116;11.612;2023-03-30T15:16:30;11.80;99.90
50162;DHT22;36061;48.116;11.612;2023-03-30T15:19:01;11.90;99.90
50162;DHT22;36061;48.116;11.612;2023-03-30T15:21:31;11.90;99.90
50162;DHT22;36061;48.116;11.612;2023-03-30T15:23:59;11.90;99.90
50162;DHT22;36061;48.116;11.612;2023-03-30T15:26:28;11.90;99.90
50162;DHT22;36061;48.116;11.612;2023-03-30T15:28:57;11.90;99.90
50162;DHT22;36061;48.116;11.612;2023-03-30T15:31:26;11.90;99.90
50162;DHT22;36061;48.116;11.612;2023-03-30T15:33:55;11.80;99.90
50162;DHT22;36061;48.116;11.612;2023-03-30T15:36:33;11.90;99.90
50162;DHT22;36061;48.116;11.612;2023-03-30T15:39:02;11.80;99.90
50162;DHT22;36061;48.116;11.612;2023-03-30T15:41:45;11.80;99.90
50162;DHT22;36061;48.116;11.612;2023-03-30T15:44:16;11.80;99.90
50162;DHT22;36061;48.116;11.612;2023-03-30T15:46:45;11.80;99.90
50162;DHT22;36061;48.116;11.612;2023-03-30T15:49:14;11.80;99.90
50162;DHT22;36061;48.116;11.612;2023-03-30T15:51:44;11.70;99.90
50162;DHT22;36061;48.116;11.612;2023-03-30T15:54:14;11.80;99.90
50162;DHT22;36061;48.116;11.612;2023-03-30T15:56:47;11.80;99.90
50162;DHT22;36061;48.116;11.612;2023-03-30T15:59:16;11.80;99.90
50162;DHT22;36061;48.116;11.612;2023-03-30T16:01:48;11.80;99.90
50162;DHT22;36061;48.116;11.612;2023-03-30T16:04:19;11.80;99.90
50162;DHT22;36061;48.116;11.612;2023-03-30T16:06:47;12.00;99.90
50162;DHT22;36061;48.116;11.612;2023-03-30T16:09:15;11.80;99.90
50162;DHT22;36061;48.116;11.612;2023-03-30T16:11:44;11.90;99.90
50162;DHT22;36061;48.116;11.612;2023-03-30T16:14:14;11.90;99.90
50162;DHT22;36061;48.116;11.612;2023-03-30T16:16:42;11.80;99.90
50162;DHT22;36061;48.116;11.612;2023-03-30T16:19:10;11.80;99.90
50162;DHT22;36061;48.116;11.612;2023-03-30T16:21:37;11.80;99.90
50162;DHT22;36061;48.116;11.612;2023-03-30T16:24:05;11.80;99.90